Time;durP1;ratioP1;P1;durP2;ratioP2;P2;SDS_P1;SDS_P2;PMS_P1;PMS_P2;Temp;Humidity;BMP_temperature;BMP_pressure;BME280_temperature;BME280_humidity;BME280_pressure;Samples;Min_cycle;Max_cycle;Signal;HPM_P1;HPM_P2
2021/05/13 00:00:50;;;;;;;1.02;0.63;;;;;;;-142.37;100.00;59669.53;5053229;28;20025;-60
2021/05/13 00:03:15;;;;;;;0.52;0.52;;;;;;;-142.37;100.00;59669.53;5056527;28;20030;-60
2021/05/13 00:05:41;;;;;;;0.40;0.40;;;;;;;-142.37;100.00;59669.53;5072869;28;20070;-60
2021/05/13 00:08:06;;;;;;;1.15;0.60;;;;;;;-142.37;100.00;59669.53;5072911;28;20028;-60
2021/05/13 00:10:32;;;;;;;0.82;0.57;;;;;;;-142.37;100.00;59669.53;5058908;28;20025;-60
2021/05/13 00:13:00;;;;;;;0.88;0.70;;;;;;;-142.37;100.00;59669.53;5052978;28;20025;-60
2021/05/13 00:15:32;;;;;;;1.92;0.68;;;;;;;-142.37;100.00;59669.53;5052836;28;20049;-61
2021/05/13 00:17:57;;;;;;;1.33;0.60;;;;;;;-142.37;100.00;59669.53;5053032;28;20078;-60
2021/05/13 00:20:26;;;;;;;1.65;0.70;;;;;;;-142.37;100.00;59669.53;5052830;28;20119;-60
2021/05/13 00:22:51;;;;;;;1.50;0.68;;;;;;;-142.37;100.00;59669.53;5052940;28;20040;-60
2021/05/13 00:25:18;;;;;;;1.10;0.63;;;;;;;-142.37;100.00;59669.53;5052886;28;20040;-61
2021/05/13 00:27:44;;;;;;;2.53;0.60;;;;;;;-142.37;100.00;59669.53;5052978;28;20364;-60
2021/05/13 00:30:10;;;;;;;1.25;0.73;;;;;;;-142.37;100.00;59669.53;5033828;28;20028;-61
2021/05/13 00:32:38;;;;;;;0.90;0.50;;;;;;;-142.37;100.00;59669.53;5032674;28;20025;-60
2021/05/13 00:35:09;;;;;;;0.40;0.40;;;;;;;-142.37;100.00;59669.53;5051589;28;20029;-60
2021/05/13 00:37:34;;;;;;;3.20;0.65;;;;;;;-142.37;100.00;59669.53;5052465;28;20051;-60
2021/05/13 00:39:59;;;;;;;0.93;0.77;;;;;;;-142.37;100.00;59669.53;5052801;28;20463;-60
2021/05/13 00:42:25;;;;;;;2.50;0.70;;;;;;;-142.37;100.00;59669.53;5052834;28;20422;-60
2021/05/13 00:44:54;;;;;;;0.93;0.60;;;;;;;-142.37;100.00;59669.53;5052676;28;20025;-60
2021/05/13 00:47:19;;;;;;;1.10;0.70;;;;;;;-142.37;100.00;59669.53;5052523;28;20025;-60
2021/05/13 00:49:45;;;;;;;1.75;0.50;;;;;;;-142.37;100.00;59669.53;5052742;28;20032;-60
2021/05/13 00:52:11;;;;;;;1.05;0.70;;;;;;;-142.37;100.00;59669.53;5052616;28;20036;-61
2021/05/13 00:54:41;;;;;;;1.42;0.85;;;;;;;-142.37;100.00;59669.53;5052348;28;20138;-60
2021/05/13 00:57:06;;;;;;;2.10;0.90;;;;;;;-142.37;100.00;59669.53;5052545;28;20108;-60
2021/05/13 00:59:34;;;;;;;1.13;0.73;;;;;;;-142.37;100.00;59669.53;5052329;28;20108;-60
2021/05/13 01:02:00;;;;;;;1.42;0.60;;;;;;;-142.37;100.00;59669.53;5056727;28;20056;-60
2021/05/13 01:04:25;;;;;;;1.67;0.80;;;;;;;-142.37;100.00;59669.53;5072370;28;20055;-60
2021/05/13 01:06:50;;;;;;;1.58;0.73;;;;;;;-142.37;100.00;59669.53;5076121;28;20379;-60
2021/05/13 01:09:24;;;;;;;0.60;0.60;;;;;;;-142.37;100.00;59669.53;5076637;28;20036;-60
2021/05/13 01:11:53;;;;;;;1.30;0.85;;;;;;;-142.37;100.00;59669.53;5076414;28;20017;-61
2021/05/13 01:14:42;;;;;;;1.13;0.80;;;;;;;-142.37;100.00;59669.53;5076431;28;20047;-60
2021/05/13 01:19:33;;;;;;;1.23;0.82;;;;;;;-142.37;100.00;59669.53;5076474;28;20024;-60
2021/05/13 01:21:58;;;;;;;0.70;0.68;;;;;;;-142.37;100.00;59669.53;5076361;28;20399;-60
2021/05/13 01:24:24;;;;;;;0.80;0.80;;;;;;;-142.37;100.00;59669.53;5076161;28;20024;-60
2021/05/13 01:26:50;;;;;;;1.73;0.80;;;;;;;-142.37;100.00;59669.53;5076279;28;20020;-60
2021/05/13 01:29:19;;;;;;;1.10;0.93;;;;;;;-142.37;100.00;59669.53;5063231;28;20480;-60
2021/05/13 01:31:45;;;;;;;1.00;0.73;;;;;;;-142.37;100.00;59669.53;5057709;28;20053;-60
2021/05/13 01:34:10;;;;;;;0.80;0.60;;;;;;;-142.37;100.00;59669.53;5076050;28;20028;-60
2021/05/13 01:36:36;;;;;;;1.80;1.02;;;;;;;-142.37;100.00;59669.53;5075869;28;20028;-60
2021/05/13 01:39:04;;;;;;;0.80;0.80;;;;;;;-142.37;100.00;59669.53;5076103;28;20485;-60
2021/05/13 01:41:30;;;;;;;1.58;1.00;;;;;;;-142.37;100.00;59669.53;5075879;28;20031;-60
2021/05/13 01:43:55;;;;;;;1.02;0.70;;;;;;;-142.37;100.00;59669.53;5075887;28;20025;-60
2021/05/13 01:46:20;;;;;;;1.77;0.85;;;;;;;-142.37;100.00;59669.53;5075784;28;20036;-60
2021/05/13 01:48:46;;;;;;;1.23;0.88;;;;;;;-142.37;100.00;59669.53;5076102;28;20031;-60
2021/05/13 01:51:11;;;;;;;0.88;0.80;;;;;;;-142.37;100.00;59669.53;5075876;28;20032;-60
2021/05/13 01:53:41;;;;;;;1.23;0.90;;;;;;;-142.37;100.00;59669.53;5075439;28;20513;-60
2021/05/13 01:56:08;;;;;;;1.08;0.88;;;;;;;-142.37;100.00;59669.53;5075746;28;20029;-60
2021/05/13 01:58:33;;;;;;;1.30;1.20;;;;;;;-142.37;100.00;59669.53;5075450;28;20032;-60
2021/05/13 02:00:59;;;;;;;1.77;1.15;;;;;;;-142.37;100.00;59669.53;5075522;28;20372;-60
2021/05/13 02:03:25;;;;;;;0.98;0.82;;;;;;;-142.37;100.00;59669.53;5059659;28;20017;-60
2021/05/13 02:05:51;;;;;;;1.20;1.10;;;;;;;-142.37;100.00;59669.53;5064195;28;20033;-60
2021/05/13 02:08:16;;;;;;;0.95;0.82;;;;;;;-142.37;100.00;59669.53;5055484;28;20036;-60
2021/05/13 02:10:41;;;;;;;1.38;1.20;;;;;;;-142.37;100.00;59669.53;5055297;28;20071;-60
2021/05/13 02:13:07;;;;;;;1.83;1.10;;;;;;;-142.37;100.00;59669.53;5055348;28;20051;-60
2021/05/13 02:15:32;;;;;;;2.65;1.33;;;;;;;-142.37;100.00;59669.53;5055199;28;20111;-60
2021/05/13 02:17:57;;;;;;;1.70;1.05;;;;;;;-142.37;100.00;59669.53;5053831;28;20380;-60
2021/05/13 02:20:24;;;;;;;1.60;1.20;;;;;;;-142.37;100.00;59669.53;5054978;28;20041;-60
2021/05/13 02:22:50;;;;;;;1.38;1.13;;;;;;;-142.37;100.00;59669.53;5055432;28;20490;-60
2021/05/13 02:25:15;;;;;;;1.35;1.08;;;;;;;-142.37;100.00;59669.53;5055129;28;20052;-60
2021/05/13 02:27:42;;;;;;;2.47;1.38;;;;;;;-142.37;100.00;59669.53;5054894;28;20411;-60
2021/05/13 02:30:11;;;;;;;2.65;1.50;;;;;;;-142.37;100.00;59669.53;5036331;28;20040;-60
2021/05/13 02:32:36;;;;;;;2.30;1.40;;;;;;;-142.37;100.00;59669.53;5057181;28;20032;-60
2021/05/13 02:35:03;;;;;;;1.60;1.10;;;;;;;-142.37;100.00;59669.53;5074985;28;20043;-60
2021/05/13 02:37:28;;;;;;;1.45;1.20;;;;;;;-142.37;100.00;59669.53;5074637;28;20017;-60
2021/05/13 02:39:53;;;;;;;3.67;1.50;;;;;;;-142.37;100.00;59669.53;5073567;28;20034;-60
2021/05/13 02:42:19;;;;;;;2.85;1.45;;;;;;;-142.37;100.00;59669.53;5074777;28;20361;-60
2021/05/13 02:44:44;;;;;;;2.15;1.52;;;;;;;-142.37;100.00;59669.53;5074745;28;20111;-60
2021/05/13 02:47:10;;;;;;;1.45;1.35;;;;;;;-142.37;100.00;59669.53;5069186;28;20028;-60
2021/05/13 02:49:35;;;;;;;2.80;1.20;;;;;;;-142.37;100.00;59669.53;5054447;28;20025;-61
2021/05/13 02:52:01;;;;;;;2.05;1.38;;;;;;;-142.37;100.00;59669.53;5054696;28;20476;-61
2021/05/13 02:54:26;;;;;;;1.67;1.50;;;;;;;-142.37;100.00;59669.53;5053086;28;20025;-60
2021/05/13 02:56:52;;;;;;;1.30;1.20;;;;;;;-142.37;100.00;59669.53;5054572;28;20035;-60
2021/05/13 02:59:17;;;;;;;1.85;1.40;;;;;;;-142.37;100.00;59669.53;5054549;28;20024;-60
2021/05/13 03:01:43;;;;;;;2.40;1.60;;;;;;;-142.37;100.00;59669.53;5054758;28;20025;-60
2021/05/13 03:04:08;;;;;;;3.63;1.70;;;;;;;-142.37;100.00;59669.53;5053189;28;20017;-60
2021/05/13 03:06:34;;;;;;;1.98;1.30;;;;;;;-142.37;100.00;59669.53;5054241;28;20029;-60
2021/05/13 03:09:00;;;;;;;1.60;1.50;;;;;;;-142.37;100.00;59669.53;5054416;28;20075;-60
2021/05/13 03:11:27;;;;;;;1.25;1.15;;;;;;;-142.37;100.00;59669.53;5054223;28;20028;-60
2021/05/13 03:13:55;;;;;;;2.83;1.75;;;;;;;-142.37;100.00;59669.53;5054187;28;20029;-60
2021/05/13 03:16:21;;;;;;;1.80;1.50;;;;;;;-142.37;100.00;59669.53;5054173;28;20025;-60
2021/05/13 03:18:52;;;;;;;3.90;1.75;;;;;;;-142.37;100.00;59669.53;5054374;28;20024;-60
2021/05/13 03:23:56;;;;;;;2.00;1.70;;;;;;;-142.37;100.00;59669.53;5054564;28;20057;-60
2021/05/13 03:26:34;;;;;;;3.40;1.63;;;;;;;-142.37;100.00;59669.53;5053884;28;20067;-60
2021/05/13 03:29:00;;;;;;;2.58;1.85;;;;;;;-142.37;100.00;59669.53;5044221;28;20053;-60
2021/05/13 03:31:25;;;;;;;1.65;1.52;;;;;;;-142.37;100.00;59669.53;5038474;28;20052;-60
2021/05/13 03:33:50;;;;;;;2.42;1.65;;;;;;;-142.37;100.00;59669.53;5053707;28;20520;-60
2021/05/13 03:36:15;;;;;;;1.98;1.52;;;;;;;-142.37;100.00;59669.53;5059539;28;20142;-60
2021/05/13 03:38:41;;;;;;;1.60;1.50;;;;;;;-142.37;100.00;59669.53;5053636;28;20035;-60
2021/05/13 03:41:06;;;;;;;1.60;1.50;;;;;;;-142.37;100.00;59669.53;5053780;28;20032;-60
2021/05/13 03:43:31;;;;;;;1.80;1.70;;;;;;;-142.37;100.00;59669.53;5053489;28;20028;-60
2021/05/13 03:45:56;;;;;;;1.92;1.55;;;;;;;-142.37;100.00;59669.53;5052235;28;20116;-60
2021/05/13 03:48:22;;;;;;;1.52;1.42;;;;;;;-142.37;100.00;59669.53;5053412;28;20108;-60
2021/05/13 03:50:47;;;;;;;1.63;1.52;;;;;;;-142.37;100.00;59669.53;5053491;28;20078;-60
2021/05/13 03:53:12;;;;;;;1.90;1.70;;;;;;;-142.37;100.00;59669.53;5053440;28;20044;-60
2021/05/13 03:55:38;;;;;;;2.05;1.70;;;;;;;-142.37;100.00;59669.53;5053183;28;20075;-60
2021/05/13 03:58:06;;;;;;;1.75;1.50;;;;;;;-142.37;100.00;59669.53;5052212;28;20074;-60
2021/05/13 04:00:39;;;;;;;2.08;1.60;;;;;;;-142.37;100.00;59669.53;5053067;28;20514;-60
2021/05/13 04:03:05;;;;;;;2.20;2.00;;;;;;;-142.37;100.00;59669.53;5053555;28;20070;-60
2021/05/13 04:05:30;;;;;;;2.10;1.90;;;;;;;-142.37;100.00;59669.53;5053046;28;20411;-60
2021/05/13 04:07:56;;;;;;;1.60;1.50;;;;;;;-142.37;100.00;59669.53;5053221;28;20029;-60
2021/05/13 04:10:21;;;;;;;1.60;1.50;;;;;;;-142.37;100.00;59669.53;5053148;28;20068;-60
2021/05/13 04:12:50;;;;;;;1.63;1.52;;;;;;;-142.37;100.00;59669.53;5052994;28;20028;-60
2021/05/13 04:15:16;;;;;;;3.00;2.08;;;;;;;-142.37;100.00;59669.53;5053102;28;20028;-60
2021/05/13 04:17:41;;;;;;;2.42;1.50;;;;;;;-142.37;100.00;59669.53;5052810;28;20028;-60
2021/05/13 04:20:07;;;;;;;1.98;1.63;;;;;;;-142.37;100.00;59669.53;5052924;28;20044;-60
2021/05/13 04:22:33;;;;;;;2.33;1.70;;;;;;;-142.37;100.00;59669.53;5052752;28;20384;-60
2021/05/13 04:24:59;;;;;;;2.00;1.67;;;;;;;-142.37;100.00;59669.53;5052940;28;20028;-60
2021/05/13 04:27:24;;;;;;;1.73;1.40;;;;;;;-142.37;100.00;59669.53;5052738;28;20040;-60
2021/05/13 04:29:49;;;;;;;1.88;1.48;;;;;;;-142.37;100.00;59669.53;5036499;28;20179;-60
2021/05/13 04:32:14;;;;;;;1.58;1.48;;;;;;;-142.37;100.00;59669.53;5045812;28;20027;-60
2021/05/13 04:34:40;;;;;;;1.58;1.45;;;;;;;-142.37;100.00;59669.53;5052551;28;20106;-60
2021/05/13 04:37:05;;;;;;;2.00;1.50;;;;;;;-142.37;100.00;59669.53;5052788;28;20480;-60
2021/05/13 04:39:30;;;;;;;1.48;1.38;;;;;;;-142.37;100.00;59669.53;5051881;28;20586;-61
2021/05/13 04:41:56;;;;;;;1.50;1.40;;;;;;;-142.37;100.00;59669.53;5052473;28;20037;-60
2021/05/13 04:44:21;;;;;;;1.50;1.40;;;;;;;-142.37;100.00;59669.53;5052530;28;20103;-60
2021/05/13 04:46:47;;;;;;;1.52;1.40;;;;;;;-142.37;100.00;59669.53;5052532;28;20028;-59
2021/05/13 04:49:16;;;;;;;1.60;1.50;;;;;;;-142.37;100.00;59669.53;5052643;28;20032;-60
2021/05/13 04:51:44;;;;;;;1.60;1.45;;;;;;;-142.37;100.00;59669.53;5052429;28;20031;-60
2021/05/13 04:54:11;;;;;;;1.50;1.40;;;;;;;-142.37;100.00;59669.53;5052479;28;20021;-60
2021/05/13 04:56:36;;;;;;;1.30;1.20;;;;;;;-142.37;100.00;59669.53;5052318;28;20052;-60
2021/05/13 04:59:02;;;;;;;1.75;1.48;;;;;;;-142.37;100.00;59669.53;5052518;28;20059;-60
2021/05/13 05:01:27;;;;;;;1.75;1.50;;;;;;;-142.37;100.00;59669.53;5056389;28;20078;-60
2021/05/13 05:03:53;;;;;;;3.00;1.70;;;;;;;-142.37;100.00;59669.53;5071408;28;20020;-60
2021/05/13 05:06:18;;;;;;;1.60;1.20;;;;;;;-142.37;100.00;59669.53;5052292;28;20025;-60
2021/05/13 05:08:43;;;;;;;1.77;1.30;;;;;;;-142.37;100.00;59669.53;5052360;28;20029;-60
2021/05/13 05:11:10;;;;;;;1.88;1.40;;;;;;;-142.37;100.00;59669.53;5052404;28;20024;-60
2021/05/13 05:13:35;;;;;;;1.63;1.50;;;;;;;-142.37;100.00;59669.53;5052319;28;20053;-60
2021/05/13 05:16:02;;;;;;;1.80;1.42;;;;;;;-142.37;100.00;59669.53;5052384;28;20143;-60
2021/05/13 05:18:27;;;;;;;1.30;1.20;;;;;;;-142.37;100.00;59669.53;5052164;28;20071;-60
2021/05/13 05:20:53;;;;;;;1.40;1.30;;;;;;;-142.37;100.00;59669.53;5052088;28;20049;-60
2021/05/13 05:23:19;;;;;;;1.40;1.30;;;;;;;-142.37;100.00;59669.53;5050935;28;20491;-60
2021/05/13 05:25:45;;;;;;;1.63;1.52;;;;;;;-142.37;100.00;59669.53;5052069;28;20024;-60
2021/05/13 05:28:10;;;;;;;1.27;1.17;;;;;;;-142.37;100.00;59669.53;5049616;28;20032;-60
2021/05/13 05:30:38;;;;;;;2.88;1.33;;;;;;;-142.37;100.00;59669.53;5033614;28;20025;-60
2021/05/13 05:33:06;;;;;;;1.55;1.45;;;;;;;-142.37;100.00;59669.53;5052151;28;20484;-60
2021/05/13 05:35:32;;;;;;;1.45;1.30;;;;;;;-142.37;100.00;59669.53;5051994;28;20036;-60
2021/05/13 05:37:58;;;;;;;1.73;1.42;;;;;;;-142.37;100.00;59669.53;5052379;28;20025;-60
2021/05/13 05:40:24;;;;;;;1.50;1.35;;;;;;;-142.37;100.00;59669.53;5052187;28;20115;-60
2021/05/13 05:42:50;;;;;;;1.88;1.25;;;;;;;-142.37;100.00;59669.53;5052051;28;20024;-60
2021/05/13 05:45:17;;;;;;;1.60;1.27;;;;;;;-142.37;100.00;59669.53;5052071;28;20029;-60
2021/05/13 05:47:42;;;;;;;1.25;1.15;;;;;;;-142.37;100.00;59669.53;5051803;28;20025;-60
2021/05/13 05:50:09;;;;;;;2.10;1.67;;;;;;;-142.37;100.00;59669.53;5052090;28;20361;-59
2021/05/13 05:52:34;;;;;;;1.65;1.40;;;;;;;-142.37;100.00;59669.53;5054715;28;20021;-60
2021/05/13 05:55:00;;;;;;;1.40;1.23;;;;;;;-142.37;100.00;59669.53;5055680;28;20471;-60
2021/05/13 05:57:25;;;;;;;1.73;1.40;;;;;;;-142.37;100.00;59669.53;5055540;28;20106;-60
2021/05/13 05:59:51;;;;;;;1.40;1.30;;;;;;;-142.37;100.00;59669.53;5055564;28;20025;-60
2021/05/13 06:02:16;;;;;;;1.60;1.45;;;;;;;-142.37;100.00;59669.53;5069617;28;20456;-60
2021/05/13 06:04:41;;;;;;;1.42;1.30;;;;;;;-142.37;100.00;59669.53;5075436;28;20065;-60
2021/05/13 06:07:07;;;;;;;1.55;1.35;;;;;;;-142.37;100.00;59669.53;5075546;28;20029;-60
2021/05/13 06:09:32;;;;;;;1.35;1.23;;;;;;;-142.37;100.00;59669.53;5075264;28;20024;-60
2021/05/13 06:11:58;;;;;;;1.55;1.23;;;;;;;-142.37;100.00;59669.53;5075584;28;20052;-60
2021/05/13 06:14:23;;;;;;;1.70;1.40;;;;;;;-142.37;100.00;59669.53;5075176;28;20051;-60
2021/05/13 06:16:49;;;;;;;1.50;1.38;;;;;;;-142.37;100.00;59669.53;5075278;28;20474;-60
2021/05/13 06:19:15;;;;;;;1.48;1.38;;;;;;;-142.37;100.00;59669.53;5075589;28;20539;-60
2021/05/13 06:21:40;;;;;;;1.60;1.30;;;;;;;-142.37;100.00;59669.53;5074789;28;20120;-60
2021/05/13 06:24:08;;;;;;;1.75;1.23;;;;;;;-142.37;100.00;59669.53;5073903;28;20043;-59
2021/05/13 06:26:34;;;;;;;1.50;1.33;;;;;;;-142.37;100.00;59669.53;5074909;28;20024;-60
2021/05/13 06:29:00;;;;;;;1.38;1.17;;;;;;;-142.37;100.00;59669.53;5065671;28;20146;-60
2021/05/13 06:31:25;;;;;;;2.75;1.40;;;;;;;-142.37;100.00;59669.53;5064460;28;20032;-60
2021/05/13 06:33:51;;;;;;;1.70;1.52;;;;;;;-142.37;100.00;59669.53;5060810;28;20117;-60
2021/05/13 06:36:17;;;;;;;2.00;1.48;;;;;;;-142.37;100.00;59669.53;5053582;28;20028;-60
2021/05/13 06:38:43;;;;;;;2.10;1.42;;;;;;;-142.37;100.00;59669.53;5055083;28;20100;-60
2021/05/13 06:41:09;;;;;;;1.45;1.35;;;;;;;-142.37;100.00;59669.53;5054927;28;20357;-60
2021/05/13 06:43:36;;;;;;;1.40;1.30;;;;;;;-142.37;100.00;59669.53;5054554;28;20028;-60
2021/05/13 06:46:03;;;;;;;1.55;1.45;;;;;;;-142.37;100.00;59669.53;5054751;28;20033;-60
2021/05/13 06:48:28;;;;;;;1.60;1.50;;;;;;;-142.37;100.00;59669.53;5054070;28;20500;-60
2021/05/13 06:50:53;;;;;;;1.55;1.30;;;;;;;-142.37;100.00;59669.53;5054719;28;20059;-60
2021/05/13 06:53:19;;;;;;;1.55;1.45;;;;;;;-142.37;100.00;59669.53;5054512;28;20171;-60
2021/05/13 06:55:46;;;;;;;1.40;1.30;;;;;;;-142.37;100.00;59669.53;5054363;28;20036;-60
2021/05/13 06:58:11;;;;;;;1.40;1.30;;;;;;;-142.37;100.00;59669.53;5054540;28;20016;-60
2021/05/13 07:00:36;;;;;;;1.70;1.48;;;;;;;-142.37;100.00;59669.53;5056724;28;20021;-60
2021/05/13 07:03:02;;;;;;;2.17;1.40;;;;;;;-142.37;100.00;59669.53;5073496;28;20040;-60
2021/05/13 07:05:27;;;;;;;1.67;1.33;;;;;;;-142.37;100.00;59669.53;5074253;28;20031;-60
2021/05/13 07:07:53;;;;;;;3.13;1.65;;;;;;;-142.37;100.00;59669.53;5074327;28;20048;-60
2021/05/13 07:10:18;;;;;;;1.50;1.40;;;;;;;-142.37;100.00;59669.53;5072969;28;20066;-59
2021/05/13 07:12:44;;;;;;;1.20;1.10;;;;;;;-142.37;100.00;59669.53;5074107;28;20424;-59
2021/05/13 07:15:10;;;;;;;1.52;1.40;;;;;;;-142.37;100.00;59669.53;5074238;28;20086;-60
2021/05/13 07:17:35;;;;;;;1.77;1.55;;;;;;;-142.37;100.00;59669.53;5074196;28;20423;-60
2021/05/13 07:20:01;;;;;;;1.83;1.70;;;;;;;-142.37;100.00;59669.53;5072655;28;20043;-60
2021/05/13 07:22:26;;;;;;;1.50;1.40;;;;;;;-142.37;100.00;59669.53;5073856;28;20068;-60
2021/05/13 07:24:51;;;;;;;1.45;1.35;;;;;;;-142.37;100.00;59669.53;5074028;28;20039;-59
2021/05/13 07:27:17;;;;;;;1.58;1.30;;;;;;;-142.37;100.00;59669.53;5074003;28;20074;-60
2021/05/13 07:29:42;;;;;;;1.33;1.10;;;;;;;-142.37;100.00;59669.53;5058426;28;20291;-60
2021/05/13 07:32:08;;;;;;;1.85;1.33;;;;;;;-142.37;100.00;59669.53;5070025;28;20028;-60
2021/05/13 07:34:34;;;;;;;1.40;1.30;;;;;;;-142.37;100.00;59669.53;5073488;28;20021;-60
2021/05/13 07:37:02;;;;;;;1.20;1.10;;;;;;;-142.37;100.00;59669.53;5065009;28;20060;-60
2021/05/13 07:39:27;;;;;;;1.90;1.63;;;;;;;-142.37;100.00;59669.53;5053542;28;20031;-60
2021/05/13 07:41:52;;;;;;;1.42;1.33;;;;;;;-142.37;100.00;59669.53;5053714;28;20037;-60
2021/05/13 07:44:18;;;;;;;1.55;1.40;;;;;;;-142.37;100.00;59669.53;5052468;28;20108;-59
2021/05/13 07:46:44;;;;;;;1.20;1.10;;;;;;;-142.37;100.00;59669.53;5053761;28;20024;-60
2021/05/13 07:49:09;;;;;;;2.30;1.08;;;;;;;-142.37;100.00;59669.53;5053658;28;20070;-59
2021/05/13 07:51:34;;;;;;;1.60;1.23;;;;;;;-142.37;100.00;59669.53;5053322;28;20108;-60
2021/05/13 07:54:00;;;;;;;1.50;1.17;;;;;;;-142.37;100.00;59669.53;5053447;28;20452;-60
2021/05/13 07:56:26;;;;;;;1.45;1.00;;;;;;;-142.37;100.00;59669.53;5053296;28;20044;-60
2021/05/13 07:58:51;;;;;;;3.65;1.45;;;;;;;-142.37;100.00;59669.53;5053666;28;20052;-60
2021/05/13 08:01:16;;;;;;;1.20;1.10;;;;;;;-142.37;100.00;59669.53;5053437;28;20037;-60
2021/05/13 08:03:42;;;;;;;1.13;1.02;;;;;;;-142.37;100.00;59669.53;5052972;28;20029;-60
2021/05/13 08:06:07;;;;;;;1.27;1.17;;;;;;;-142.37;100.00;59669.53;5053270;28;20020;-60
2021/05/13 08:08:32;;;;;;;1.38;1.27;;;;;;;-142.37;100.00;59669.53;5053051;28;20021;-60
2021/05/13 08:10:58;;;;;;;2.72;1.45;;;;;;;-142.37;100.00;59669.53;5053163;28;20025;-60
2021/05/13 08:13:23;;;;;;;1.20;1.10;;;;;;;-142.37;100.00;59669.53;5052903;28;20128;-60
2021/05/13 08:15:49;;;;;;;1.27;1.17;;;;;;;-142.37;100.00;59669.53;5053063;28;20029;-60
2021/05/13 08:18:14;;;;;;;1.27;1.17;;;;;;;-142.37;100.00;59669.53;5053102;28;20472;-60
2021/05/13 08:20:39;;;;;;;2.75;1.55;;;;;;;-142.37;100.00;59669.53;5052711;28;20045;-60
2021/05/13 08:23:06;;;;;;;1.33;1.20;;;;;;;-142.37;100.00;59669.53;5051727;28;20051;-60
2021/05/13 08:25:32;;;;;;;1.10;1.00;;;;;;;-142.37;100.00;59669.53;5052773;28;20025;-60
2021/05/13 08:27:57;;;;;;;1.20;1.10;;;;;;;-142.37;100.00;59669.53;5051974;28;20036;-60
2021/05/13 08:30:22;;;;;;;1.58;1.05;;;;;;;-142.37;100.00;59669.53;5038640;28;20021;-60
2021/05/13 08:32:48;;;;;;;1.73;1.42;;;;;;;-142.37;100.00;59669.53;5052780;28;20044;-60
2021/05/13 08:35:13;;;;;;;1.67;1.25;;;;;;;-142.37;100.00;59669.53;5052749;28;20025;-60
2021/05/13 08:37:40;;;;;;;1.63;1.25;;;;;;;-142.37;100.00;59669.53;5052457;28;20493;-60
2021/05/13 08:40:06;;;;;;;1.30;1.20;;;;;;;-142.37;100.00;59669.53;5052797;28;20382;-59
2021/05/13 08:42:33;;;;;;;1.33;1.13;;;;;;;-142.37;100.00;59669.53;5052589;28;20017;-60
2021/05/13 08:44:59;;;;;;;1.95;1.20;;;;;;;-142.37;100.00;59669.53;5052784;28;20017;-60
2021/05/13 08:47:24;;;;;;;1.40;0.98;;;;;;;-142.37;100.00;59669.53;5052562;28;20483;-60
2021/05/13 08:49:50;;;;;;;1.20;1.15;;;;;;;-142.37;100.00;59669.53;5052530;28;20460;-60
2021/05/13 08:52:17;;;;;;;1.63;1.17;;;;;;;-142.37;100.00;59669.53;5052641;28;20033;-60
2021/05/13 08:54:53;;;;;;;1.35;1.02;;;;;;;-142.37;100.00;59669.53;5052687;28;20021;-60
2021/05/13 08:57:19;;;;;;;1.15;1.00;;;;;;;-142.37;100.00;59669.53;5052506;28;20104;-60
2021/05/13 08:59:44;;;;;;;1.27;1.15;;;;;;;-142.37;100.00;59669.53;5052883;28;20178;-60
2021/05/13 09:02:11;;;;;;;1.17;1.08;;;;;;;-142.37;100.00;59669.53;5072164;28;20113;-60
2021/05/13 09:04:38;;;;;;;1.27;1.13;;;;;;;-142.37;100.00;59669.53;5072342;28;20038;-60
2021/05/13 09:07:26;;;;;;;1.17;1.08;;;;;;;-142.37;100.00;59669.53;5072567;28;20039;-59
2021/05/13 09:10:08;;;;;;;2.30;1.27;;;;;;;-142.37;100.00;59669.53;5072343;28;20028;-59
2021/05/13 09:12:39;;;;;;;1.65;1.30;;;;;;;-142.37;100.00;59669.53;5072239;28;20031;-60
2021/05/13 09:15:22;;;;;;;2.17;1.08;;;;;;;-142.37;100.00;59669.53;5072037;28;20036;-60
2021/05/13 09:18:01;;;;;;;1.23;0.95;;;;;;;-142.37;100.00;59669.53;5062782;28;20029;-60
2021/05/13 09:20:36;;;;;;;1.20;1.10;;;;;;;-142.37;100.00;59669.53;5071952;28;20044;-60
2021/05/13 09:23:26;;;;;;;1.10;1.00;;;;;;;-142.37;100.00;59669.53;5072396;28;20024;-60
2021/05/13 09:26:16;;;;;;;1.67;1.30;;;;;;;-142.37;100.00;59669.53;5072364;28;20023;-60
2021/05/13 09:28:42;;;;;;;1.35;1.20;;;;;;;-142.37;100.00;59669.53;5069569;28;20259;-60
2021/05/13 09:31:08;;;;;;;1.25;1.15;;;;;;;-142.37;100.00;59669.53;5067145;28;20103;-60
2021/05/13 09:33:38;;;;;;;1.85;1.38;;;;;;;-142.37;100.00;59669.53;5075910;28;20103;-60
2021/05/13 09:36:20;;;;;;;1.00;0.90;;;;;;;-142.37;100.00;59669.53;5076137;28;20021;-60
2021/05/13 09:38:45;;;;;;;0.93;0.93;;;;;;;-142.37;100.00;59669.53;5076309;28;20024;-60
2021/05/13 09:41:10;;;;;;;1.75;1.10;;;;;;;-142.37;100.00;59669.53;5076123;28;20471;-60
2021/05/13 09:43:36;;;;;;;1.67;0.90;;;;;;;-142.37;100.00;59669.53;5076008;28;20383;-60
2021/05/13 09:46:04;;;;;;;1.10;1.00;;;;;;;-142.37;100.00;59669.53;5075954;28;20020;-60
2021/05/13 09:48:39;;;;;;;1.45;1.35;;;;;;;-142.37;100.00;59669.53;5075659;28;20027;-60
2021/05/13 09:51:25;;;;;;;1.20;1.02;;;;;;;-142.37;100.00;59669.53;5076203;28;20467;-60
2021/05/13 09:54:03;;;;;;;1.50;1.08;;;;;;;-142.37;100.00;59669.53;5075582;28;20032;-60
2021/05/13 09:56:30;;;;;;;2.10;1.20;;;;;;;-142.37;100.00;59669.53;5075559;28;20375;-60
2021/05/13 09:58:57;;;;;;;0.90;0.90;;;;;;;-142.37;100.00;59669.53;5075729;28;20070;-60
2021/05/13 10:01:22;;;;;;;4.05;1.17;;;;;;;-142.37;100.00;59669.53;5060935;28;20033;-60
2021/05/13 10:03:49;;;;;;;1.55;1.13;;;;;;;-142.37;100.00;59669.53;5055452;28;20479;-59
2021/05/13 10:06:14;;;;;;;2.05;1.20;;;;;;;-142.37;100.00;59669.53;5055662;28;20024;-60
2021/05/13 10:08:42;;;;;;;1.83;1.10;;;;;;;-142.37;100.00;59669.53;5055383;28;20097;-59
2021/05/13 10:11:08;;;;;;;1.33;0.98;;;;;;;-142.37;100.00;59669.53;5055571;28;20025;-59
2021/05/13 10:13:34;;;;;;;1.73;1.15;;;;;;;-142.37;100.00;59669.53;5055118;28;20151;-60
2021/05/13 10:16:00;;;;;;;1.90;0.85;;;;;;;-142.37;100.00;59669.53;5055608;28;20100;-60
2021/05/13 10:18:32;;;;;;;1.23;1.13;;;;;;;-142.37;100.00;59669.53;5053898;28;20043;-60
2021/05/13 10:21:05;;;;;;;0.85;0.77;;;;;;;-142.37;100.00;59669.53;5055184;28;20163;-60
2021/05/13 10:23:32;;;;;;;1.20;1.10;;;;;;;-142.37;100.00;59669.53;5055062;28;20021;-60
2021/05/13 10:25:58;;;;;;;0.82;0.70;;;;;;;-142.37;100.00;59669.53;5055117;28;20029;-59
2021/05/13 10:28:28;;;;;;;1.20;1.02;;;;;;;-142.37;100.00;59669.53;5050614;28;20025;-59
2021/05/13 10:31:06;;;;;;;1.30;1.15;;;;;;;-142.37;100.00;59669.53;5044349;28;20583;-60
2021/05/13 10:33:48;;;;;;;1.52;0.95;;;;;;;-142.37;100.00;59669.53;5068862;28;20029;-60
2021/05/13 10:36:15;;;;;;;1.63;1.20;;;;;;;-142.37;100.00;59669.53;5075004;28;20055;-60
2021/05/13 10:38:48;;;;;;;1.05;0.95;;;;;;;-142.37;100.00;59669.53;5073457;28;20024;-60
2021/05/13 10:41:29;;;;;;;0.80;0.80;;;;;;;-142.37;100.00;59669.53;5074979;28;20383;-60
2021/05/13 10:43:55;;;;;;;1.23;1.00;;;;;;;-142.37;100.00;59669.53;5074832;28;20103;-60
2021/05/13 10:46:30;;;;;;;0.90;0.90;;;;;;;-142.37;100.00;59669.53;5074766;28;20028;-60
2021/05/13 10:49:16;;;;;;;1.35;1.10;;;;;;;-142.37;100.00;59669.53;5055180;28;20025;-60
2021/05/13 10:51:46;;;;;;;1.38;0.90;;;;;;;-142.37;100.00;59669.53;5054473;28;20075;-60
2021/05/13 10:54:29;;;;;;;1.10;1.00;;;;;;;-142.37;100.00;59669.53;5053519;28;20384;-59
2021/05/13 10:57:13;;;;;;;1.08;0.88;;;;;;;-142.37;100.00;59669.53;5054716;28;20067;-60
2021/05/13 10:59:40;;;;;;;0.85;0.70;;;;;;;-142.37;100.00;59669.53;5053168;28;20029;-60
2021/05/13 11:02:35;;;;;;;1.42;0.90;;;;;;;-142.37;100.00;59669.53;5054566;28;20029;-60
2021/05/13 11:05:00;;;;;;;1.10;1.00;;;;;;;-142.37;100.00;59669.53;5054537;28;20028;-60
2021/05/13 11:07:31;;;;;;;1.00;0.90;;;;;;;-142.37;100.00;59669.53;5054301;28;20032;-60
2021/05/13 11:09:57;;;;;;;0.95;0.70;;;;;;;-142.37;100.00;59669.53;5054389;28;20059;-60
2021/05/13 11:12:28;;;;;;;1.35;0.90;;;;;;;-142.37;100.00;59669.53;5054208;28;20032;-59
2021/05/13 11:15:05;;;;;;;0.68;0.68;;;;;;;-142.37;100.00;59669.53;5054258;28;20025;-60